• Join FlightAware (Why Join?)
  • Login
  • US Flag 
07:56PM EST


 

Airport Tracker/Info


-or-


 

Live Flight TrackerFlight Track Log ✈ ASQ5685 ✈ 09-Dec-2013 ✈ KATL - KIAD

Flight Track Log - Related Links

Times and Time Zones

All times are in EST time to prevent confusion due to time zone crossing. See the ASQ5685 flight status page for this flight to view local times or setup timezone preferences in your user account.

Time Position Orientation Groundspeed Altitude Reporting Facility
EST Latitude Longitude Course Direction KTS MPH feet Rate Location/Type
12:06PM 33.6333 -84.4000 52° Northeast 198 228 2,300  Level Atlanta TRACON
12:07PM 33.6333 -84.3333 90° East 263 303 3,100 1,860 Climbing Atlanta TRACON
12:08PM 33.6333 -84.2000 90° East 301 346 6,300 2,460 Climbing Atlanta TRACON
12:09PM 33.6333 -84.1167 90° East 320 368 8,300 1,920 Climbing Atlanta TRACON
12:10PM 33.7067 -84.0064 51° Northeast 329 379 10,700 1,380 Climbing Atlanta Center
12:11PM 34.1612 -83.8014 52° Northeast  Level Estimated
12:11PM 33.7775 -83.9164 47° Northeast 348 400 11,700  Level Atlanta Center
12:12PM 33.8503 -83.8211 47° Northeast 380 437 13,000 1,260 Climbing Atlanta Center
12:13PM 33.9275 -83.7183 48° Northeast 400 460 14,300 1,500 Climbing Atlanta Center
12:14PM 33.9958 -83.6078 53° Northeast 407 468 16,000 1,680 Climbing Atlanta Center
12:15PM 34.0664 -83.4997 52° Northeast 407 468 17,700 1,200 Climbing Atlanta Center
12:16PM 34.1411 -83.3836 52° Northeast 402 463 18,500 900 Climbing Atlanta Center
12:17PM 34.2072 -83.2728 54° Northeast 402 463 19,500 960 Climbing Atlanta Center
12:18PM 34.2753 -83.1639 53° Northeast 402 463 20,500 840 Climbing Atlanta Center
12:19PM 34.3286 -83.0453 61° Northeast 402 463 21,200 600 Climbing Atlanta Center
12:20PM 34.3464 -82.9117 81° East 392 451 21,700 480 Climbing Atlanta Center
12:21PM 34.3597 -82.7731 83° East 403 464 22,200 480 Climbing Atlanta Center
12:22PM 34.3747 -82.6244 83° East 423 487 22,700 660 Climbing Atlanta Center
12:23PM 34.3958 -82.4831 80° East 429 494 23,600 960 Climbing Atlanta Center
12:24PM 34.4128 -82.3342 82° East 429 494 24,700 900 Climbing Atlanta Center
12:25PM 34.4294 -82.1928 82° East 429 494 25,500 600 Climbing Atlanta Center
12:26PM 34.5047 -82.0753 52° Northeast 413 475 26,000 480 Climbing Atlanta Center
12:27PM 34.5906 -81.9647 47° Northeast 427 491 26,500 420 Climbing Atlanta Center
12:28PM 34.6742 -81.8514 48° Northeast 433 498 26,900 420 Climbing Atlanta Center
12:29PM 34.7619 -81.7431 45° Northeast 438 504 27,400 540 Climbing Atlanta Center
12:30PM 34.8433 -81.6269 49° Northeast 448 516 28,000 480 Climbing Atlanta Center
12:31PM 34.9308 -81.5128 47° Northeast 448 516 28,400 480 Climbing Atlanta Center
12:32PM 35.0139 -81.3961 49° Northeast 448 516 29,000 540 Climbing Atlanta Center
12:33PM 35.0928 -81.2897 48° Northeast 453 521 29,500 480 Climbing Atlanta Center
12:34PM 35.1778 -81.1725 48° Northeast 448 516 30,000 480 Climbing Atlanta Center
12:35PM 35.2628 -81.0575 48° Northeast 448 516 30,500 480 Climbing Atlanta Center
12:36PM 35.3475 -80.9425 48° Northeast 448 516 31,000 240 Climbing Atlanta Center
12:37PM 35.4361 -80.8194 49° Northeast 453 521 31,000  Level Atlanta Center
12:38PM 35.5247 -80.6958 49° Northeast 460 529 31,000  Level Atlanta Center
12:39PM 35.6192 -80.5669 48° Northeast 480 552 31,000  Level Atlanta Center
12:40PM 35.7114 -80.4403 48° Northeast 487 560 31,000  Level Atlanta Center
12:41PM 35.8056 -80.3106 48° Northeast 497 572 31,000  Level Atlanta Center
12:44PM 36.0178 -80.0167 48° Northeast 500 575 31,000  Level Washington Center
12:45PM 36.1044 -79.8778 52° Northeast 500 575 31,000  Level Washington Center
12:46PM 36.1978 -79.7128 55° Northeast 514 592 31,000  Level Washington Center
12:47PM 36.2756 -79.5725 55° Northeast 517 595 31,000  Level Washington Center
12:48PM 36.3508 -79.4425 54° Northeast 517 595 31,000  Level Washington Center
12:49PM 36.4306 -79.2914 57° Northeast 512 589 31,000 -300 Level Washington Center
12:50PM 36.5144 -79.1456 54° Northeast 522 601 30,500 -1,680 Descending Washington Center
12:51PM 36.6089 -78.9789 55° Northeast 522 601 27,700 -2,700 Descending Washington Center
12:52PM 36.6489 -78.8125 73° East 506 582 25,200 -1,380 Descending Washington Center
12:53PM 36.6578 -78.6394 86° East 492 566 25,000 -120 Descending Washington Center
12:54PM 36.6639 -78.4686 87° East 482 555 25,000  Level Washington Center
12:55PM 36.6950 -78.3067 76° East 482 555 25,000  Level Washington Center
12:56PM 36.8092 -78.2328 27° Northeast 416 479 25,000  Level Washington Center
12:57PM 36.9211 -78.1717 24° Northeast 411 473 25,000 -480 Level Washington Center
12:58PM 37.0308 -78.1131 23° Northeast 423 487 24,100 -960 Descending Washington Center
12:59PM 37.1428 -78.0489 25° Northeast 423 487 23,100 -1,020 Descending Washington Center
01:00PM 37.2694 -77.9772 24° Northeast 421 484 21,700 -1,500 Descending Washington Center
01:01PM 37.3917 -77.9078 24° Northeast 409 471 19,600 -1,920 Descending Washington Center
01:02PM 37.4908 -77.8481 26° Northeast 399 459 17,900 -1,620 Descending Washington Center
01:03PM 37.5858 -77.7958 24° Northeast 381 438 16,400 -1,500 Descending Washington Center
01:04PM 37.6742 -77.7433 25° Northeast 369 425 14,900 -1,440 Descending Washington Center
01:05PM 37.7586 -77.6958 24° Northeast 348 400 13,600 -1,320 Descending Washington Center
01:06PM 37.8450 -77.6456 25° Northeast 337 388 12,300 -1,320 Descending Washington Center
01:07PM 37.9292 -77.5925 26° Northeast 337 388 11,000 -1,140 Descending Washington Center
01:08PM 38.0156 -77.5422 25° Northeast 337 388 10,100 -540 Descending Washington Center
01:09PM 38.0933 -77.4994 23° Northeast 337 388 10,000 -60 Descending Washington Center
01:10PM 38.1733 -77.4511 25° Northeast 332 382 10,000 -180 Level Washington Center
01:11PM 38.2556 -77.4031 25° Northeast 322 371 9,700 -900 Descending Washington Center
01:12PM 38.3375 -77.3572 24° Northeast 322 371 8,200 -1,560 Descending Washington Center
01:13PM 38.4147 -77.3592 359° North 293 337 6,700 -1,560 Descending Washington Center
01:14PM 38.4981 -77.3639 357° North 293 337 5,200 -900 Descending Washington Center
01:15PM 38.5708 -77.3656 359° North 283 326 5,000 -600 Descending Washington Center
01:16PM 38.6500 -77.3667 359° North 286 329 4,100 -540 Descending Potomac TRACON
01:17PM 38.7333 -77.3667 360° North 265 305 4,000 -60 Descending Potomac TRACON
01:18PM 38.8000 -77.3500 11° North 264 304 4,000  Level Potomac TRACON
01:19PM 38.8833 -77.3500 360° North 275 316 4,000  Level Potomac TRACON
01:20PM 38.9500 -77.3500 360° North 262 302 4,000  Level Potomac TRACON
01:21PM 39.0167 -77.3500 360° North 231 266 4,000 -120 Level Potomac TRACON
01:22PM 39.0833 -77.3500 360° North 230 265 3,800 -540 Descending Potomac TRACON
01:23PM 39.1500 -77.3500 360° North 211 243 3,000 -420 Descending Potomac TRACON
01:24PM 39.1500 -77.4000 270° West 165 190 3,000 -540 Level Potomac TRACON
01:25PM 39.1167 -77.4333 218° Southwest 171 197 2,000 -540 Descending Potomac TRACON
01:26PM 39.0667 -77.4333 180° South 173 199 2,000 -180 Level Potomac TRACON
01:27PM 39.0167 -77.4333 180° South 155 178 1,700 -540 Descending Potomac TRACON
01:28PM 38.9833 -77.4333 180° South 145 167 1,000 -780 Descending Potomac TRACON
01:30PM 38.9474 -77.4599 191° South  Level Estimated